sensor_id;sensor_type;location;lat;lon;timestamp;temperature;humidity
5128;DHT22;2582;48.770;9.190;2024-03-08T00:00:05;4.90;99.90
5128;DHT22;2582;48.770;9.190;2024-03-08T00:02:44;4.80;99.90
5128;DHT22;2582;48.770;9.190;2024-03-08T00:05:10;4.80;99.90
5128;DHT22;2582;48.770;9.190;2024-03-08T00:07:36;4.70;99.90
5128;DHT22;2582;48.770;9.190;2024-03-08T00:10:07;4.70;99.90
5128;DHT22;2582;48.770;9.190;2024-03-08T00:12:40;4.80;99.90
5128;DHT22;2582;48.770;9.190;2024-03-08T00:15:10;4.80;99.90
5128;DHT22;2582;48.770;9.190;2024-03-08T00:17:39;4.80;99.90
5128;DHT22;2582;48.770;9.190;2024-03-08T00:20:06;4.80;99.90
5128;DHT22;2582;48.770;9.190;2024-03-08T00:22:37;4.80;99.90
5128;DHT22;2582;48.770;9.190;2024-03-08T00:25:04;4.70;99.90
5128;DHT22;2582;48.770;9.190;2024-03-08T00:27:30;4.70;99.90
5128;DHT22;2582;48.770;9.190;2024-03-08T00:29:58;4.70;99.90
5128;DHT22;2582;48.770;9.190;2024-03-08T00:32:24;4.70;99.90
5128;DHT22;2582;48.770;9.190;2024-03-08T00:34:50;4.70;99.90
5128;DHT22;2582;48.770;9.190;2024-03-08T00:37:20;4.60;99.90
5128;DHT22;2582;48.770;9.190;2024-03-08T00:39:45;4.60;99.90
5128;DHT22;2582;48.770;9.190;2024-03-08T00:42:11;4.60;99.90
5128;DHT22;2582;48.770;9.190;2024-03-08T00:44:36;4.50;99.90
5128;DHT22;2582;48.770;9.190;2024-03-08T00:47:03;4.40;99.90
5128;DHT22;2582;48.770;9.190;2024-03-08T00:49:30;4.40;99.90
5128;DHT22;2582;48.770;9.190;2024-03-08T00:51:55;4.30;99.90
5128;DHT22;2582;48.770;9.190;2024-03-08T00:54:21;4.40;99.90
5128;DHT22;2582;48.770;9.190;2024-03-08T00:56:47;4.40;99.90
5128;DHT22;2582;48.770;9.190;2024-03-08T00:59:12;4.20;99.90
5128;DHT22;2582;48.770;9.190;2024-03-08T01:01:40;4.20;99.90
5128;DHT22;2582;48.770;9.190;2024-03-08T01:04:05;4.20;99.90
5128;DHT22;2582;48.770;9.190;2024-03-08T01:06:31;4.10;99.90
5128;DHT22;2582;48.770;9.190;2024-03-08T01:08:57;4.10;99.90
5128;DHT22;2582;48.770;9.190;2024-03-08T01:11:22;4.10;99.90
5128;DHT22;2582;48.770;9.190;2024-03-08T01:13:48;4.10;99.90
5128;DHT22;2582;48.770;9.190;2024-03-08T01:16:15;4.20;99.90
5128;DHT22;2582;48.770;9.190;2024-03-08T01:18:42;4.20;99.90
5128;DHT22;2582;48.770;9.190;2024-03-08T01:21:08;4.20;99.90
5128;DHT22;2582;48.770;9.190;2024-03-08T01:23:33;4.20;99.90
5128;DHT22;2582;48.770;9.190;2024-03-08T01:26:00;4.20;99.90
5128;DHT22;2582;48.770;9.190;2024-03-08T01:28:27;4.20;99.90
5128;DHT22;2582;48.770;9.190;2024-03-08T01:30:53;4.20;99.90
5128;DHT22;2582;48.770;9.190;2024-03-08T01:33:24;4.10;99.90
5128;DHT22;2582;48.770;9.190;2024-03-08T01:35:51;4.10;99.90
5128;DHT22;2582;48.770;9.190;2024-03-08T01:38:18;4.00;99.90
5128;DHT22;2582;48.770;9.190;2024-03-08T01:40:44;3.90;99.90
5128;DHT22;2582;48.770;9.190;2024-03-08T01:45:43;3.90;99.90
5128;DHT22;2582;48.770;9.190;2024-03-08T01:48:08;3.80;99.90
5128;DHT22;2582;48.770;9.190;2024-03-08T01:50:34;3.80;99.90
5128;DHT22;2582;48.770;9.190;2024-03-08T01:53:01;3.80;99.90
5128;DHT22;2582;48.770;9.190;2024-03-08T01:55:27;3.80;99.90
5128;DHT22;2582;48.770;9.190;2024-03-08T01:57:53;3.80;99.90
5128;DHT22;2582;48.770;9.190;2024-03-08T02:00:19;3.90;99.90
5128;DHT22;2582;48.770;9.190;2024-03-08T02:02:47;3.80;99.90
5128;DHT22;2582;48.770;9.190;2024-03-08T02:05:15;3.80;99.90
5128;DHT22;2582;48.770;9.190;2024-03-08T02:07:41;3.80;99.90
5128;DHT22;2582;48.770;9.190;2024-03-08T02:10:09;3.80;99.90
5128;DHT22;2582;48.770;9.190;2024-03-08T02:12:35;3.70;99.90
5128;DHT22;2582;48.770;9.190;2024-03-08T02:15:01;3.70;99.90
5128;DHT22;2582;48.770;9.190;2024-03-08T02:17:26;3.60;99.90
5128;DHT22;2582;48.770;9.190;2024-03-08T02:19:52;3.60;99.90
5128;DHT22;2582;48.770;9.190;2024-03-08T02:22:17;3.60;99.90
5128;DHT22;2582;48.770;9.190;2024-03-08T02:24:44;3.50;99.90
5128;DHT22;2582;48.770;9.190;2024-03-08T02:27:10;3.50;99.90
5128;DHT22;2582;48.770;9.190;2024-03-08T02:29:37;3.60;99.90
5128;DHT22;2582;48.770;9.190;2024-03-08T02:32:06;3.60;99.90
5128;DHT22;2582;48.770;9.190;2024-03-08T02:34:31;3.50;99.90
5128;DHT22;2582;48.770;9.190;2024-03-08T02:36:57;3.50;99.90
5128;DHT22;2582;48.770;9.190;2024-03-08T02:39:23;3.50;99.90
5128;DHT22;2582;48.770;9.190;2024-03-08T02:41:48;3.50;99.90
5128;DHT22;2582;48.770;9.190;2024-03-08T02:44:14;3.40;99.90
5128;DHT22;2582;48.770;9.190;2024-03-08T02:46:40;3.40;99.90
5128;DHT22;2582;48.770;9.190;2024-03-08T02:49:06;3.40;99.90
5128;DHT22;2582;48.770;9.190;2024-03-08T02:51:33;3.50;99.90
5128;DHT22;2582;48.770;9.190;2024-03-08T02:54:00;3.40;99.90
5128;DHT22;2582;48.770;9.190;2024-03-08T02:56:26;3.40;99.90
5128;DHT22;2582;48.770;9.190;2024-03-08T02:58:51;3.30;99.90
5128;DHT22;2582;48.770;9.190;2024-03-08T03:01:17;3.40;99.90
5128;DHT22;2582;48.770;9.190;2024-03-08T03:03:45;3.30;99.90
5128;DHT22;2582;48.770;9.190;2024-03-08T03:06:12;3.40;99.90
5128;DHT22;2582;48.770;9.190;2024-03-08T03:08:38;3.40;99.90
5128;DHT22;2582;48.770;9.190;2024-03-08T03:11:04;3.50;99.90
5128;DHT22;2582;48.770;9.190;2024-03-08T03:13:29;3.50;99.90
5128;DHT22;2582;48.770;9.190;2024-03-08T03:15:55;3.60;99.90
5128;DHT22;2582;48.770;9.190;2024-03-08T03:18:23;3.60;99.90
5128;DHT22;2582;48.770;9.190;2024-03-08T03:20:49;3.70;99.90
5128;DHT22;2582;48.770;9.190;2024-03-08T03:23:14;3.80;99.90
5128;DHT22;2582;48.770;9.190;2024-03-08T03:25:46;3.80;99.90
5128;DHT22;2582;48.770;9.190;2024-03-08T03:28:11;3.90;99.90
5128;DHT22;2582;48.770;9.190;2024-03-08T03:30:40;3.80;99.90
5128;DHT22;2582;48.770;9.190;2024-03-08T03:33:05;3.80;99.90
5128;DHT22;2582;48.770;9.190;2024-03-08T03:35:32;3.80;99.90
5128;DHT22;2582;48.770;9.190;2024-03-08T03:37:58;3.90;99.90
5128;DHT22;2582;48.770;9.190;2024-03-08T03:40:29;3.70;99.90
5128;DHT22;2582;48.770;9.190;2024-03-08T03:42:55;3.70;99.90
5128;DHT22;2582;48.770;9.190;2024-03-08T03:45:21;3.70;99.90
5128;DHT22;2582;48.770;9.190;2024-03-08T03:47:47;3.70;99.90
5128;DHT22;2582;48.770;9.190;2024-03-08T03:50:12;3.70;99.90
5128;DHT22;2582;48.770;9.190;2024-03-08T03:52:38;3.80;99.90
5128;DHT22;2582;48.770;9.190;2024-03-08T03:55:04;3.70;99.90
5128;DHT22;2582;48.770;9.190;2024-03-08T03:57:31;3.80;99.90
5128;DHT22;2582;48.770;9.190;2024-03-08T03:59:56;3.80;99.90
5128;DHT22;2582;48.770;9.190;2024-03-08T04:02:25;3.80;99.90
5128;DHT22;2582;48.770;9.190;2024-03-08T04:04:52;3.60;99.90
5128;DHT22;2582;48.770;9.190;2024-03-08T04:07:17;3.70;99.90
5128;DHT22;2582;48.770;9.190;2024-03-08T04:09:43;3.70;99.90
5128;DHT22;2582;48.770;9.190;2024-03-08T04:12:09;3.70;99.90
5128;DHT22;2582;48.770;9.190;2024-03-08T04:14:35;3.70;99.90
5128;DHT22;2582;48.770;9.190;2024-03-08T04:17:01;3.70;99.90
5128;DHT22;2582;48.770;9.190;2024-03-08T04:19:27;3.60;99.90
5128;DHT22;2582;48.770;9.190;2024-03-08T04:21:53;3.60;99.90
5128;DHT22;2582;48.770;9.190;2024-03-08T04:24:19;3.60;99.90
5128;DHT22;2582;48.770;9.190;2024-03-08T04:26:46;3.40;99.90
5128;DHT22;2582;48.770;9.190;2024-03-08T04:29:12;3.40;99.90
5128;DHT22;2582;48.770;9.190;2024-03-08T04:31:40;3.40;99.90
5128;DHT22;2582;48.770;9.190;2024-03-08T04:34:06;3.30;99.90
5128;DHT22;2582;48.770;9.190;2024-03-08T04:36:32;3.30;99.90
5128;DHT22;2582;48.770;9.190;2024-03-08T04:38:59;3.30;99.90
5128;DHT22;2582;48.770;9.190;2024-03-08T04:41:25;3.30;99.90
5128;DHT22;2582;48.770;9.190;2024-03-08T04:43:51;3.40;99.90
5128;DHT22;2582;48.770;9.190;2024-03-08T04:46:17;3.40;99.90
5128;DHT22;2582;48.770;9.190;2024-03-08T04:48:43;3.40;99.90
5128;DHT22;2582;48.770;9.190;2024-03-08T04:51:09;3.60;99.90
5128;DHT22;2582;48.770;9.190;2024-03-08T04:53:35;3.50;99.90
5128;DHT22;2582;48.770;9.190;2024-03-08T04:56:00;3.60;99.90
5128;DHT22;2582;48.770;9.190;2024-03-08T04:58:32;3.60;99.90
5128;DHT22;2582;48.770;9.190;2024-03-08T05:01:00;3.50;99.90
5128;DHT22;2582;48.770;9.190;2024-03-08T05:03:26;3.40;99.90
5128;DHT22;2582;48.770;9.190;2024-03-08T05:05:52;3.50;99.90
5128;DHT22;2582;48.770;9.190;2024-03-08T05:08:18;3.50;99.90
5128;DHT22;2582;48.770;9.190;2024-03-08T05:10:44;3.50;99.90
5128;DHT22;2582;48.770;9.190;2024-03-08T05:13:10;3.50;99.90
5128;DHT22;2582;48.770;9.190;2024-03-08T05:15:36;3.60;99.90
5128;DHT22;2582;48.770;9.190;2024-03-08T05:18:02;3.50;99.90
5128;DHT22;2582;48.770;9.190;2024-03-08T05:20:27;3.50;99.90
5128;DHT22;2582;48.770;9.190;2024-03-08T05:22:53;3.50;99.90
5128;DHT22;2582;48.770;9.190;2024-03-08T05:25:18;3.50;99.90
5128;DHT22;2582;48.770;9.190;2024-03-08T05:27:44;3.50;99.90
5128;DHT22;2582;48.770;9.190;2024-03-08T05:30:10;3.50;99.90
5128;DHT22;2582;48.770;9.190;2024-03-08T05:32:41;3.50;99.90
5128;DHT22;2582;48.770;9.190;2024-03-08T05:35:10;3.40;99.90
5128;DHT22;2582;48.770;9.190;2024-03-08T05:37:36;3.50;99.90
5128;DHT22;2582;48.770;9.190;2024-03-08T05:40:02;3.50;99.90
5128;DHT22;2582;48.770;9.190;2024-03-08T05:42:29;3.50;99.90
5128;DHT22;2582;48.770;9.190;2024-03-08T05:44:54;3.40;99.90
5128;DHT22;2582;48.770;9.190;2024-03-08T05:47:22;3.30;99.90
5128;DHT22;2582;48.770;9.190;2024-03-08T05:49:48;3.30;99.90
5128;DHT22;2582;48.770;9.190;2024-03-08T05:52:13;3.20;99.90
5128;DHT22;2582;48.770;9.190;2024-03-08T05:54:39;3.10;99.90
5128;DHT22;2582;48.770;9.190;2024-03-08T05:57:06;3.20;99.90
5128;DHT22;2582;48.770;9.190;2024-03-08T05:59:31;3.30;99.90
5128;DHT22;2582;48.770;9.190;2024-03-08T06:01:57;3.30;99.90
5128;DHT22;2582;48.770;9.190;2024-03-08T06:04:23;3.30;99.90
5128;DHT22;2582;48.770;9.190;2024-03-08T06:06:48;3.30;99.90
5128;DHT22;2582;48.770;9.190;2024-03-08T06:09:17;3.30;99.90
5128;DHT22;2582;48.770;9.190;2024-03-08T06:11:48;3.30;99.90
5128;DHT22;2582;48.770;9.190;2024-03-08T06:14:13;3.20;99.90
5128;DHT22;2582;48.770;9.190;2024-03-08T06:16:41;3.20;99.90
5128;DHT22;2582;48.770;9.190;2024-03-08T06:19:07;3.20;99.90
5128;DHT22;2582;48.770;9.190;2024-03-08T06:21:33;3.10;99.90
5128;DHT22;2582;48.770;9.190;2024-03-08T06:23:58;3.00;99.90
5128;DHT22;2582;48.770;9.190;2024-03-08T06:26:24;3.00;99.90
5128;DHT22;2582;48.770;9.190;2024-03-08T06:28:50;3.10;99.90
5128;DHT22;2582;48.770;9.190;2024-03-08T06:31:16;3.10;99.90
5128;DHT22;2582;48.770;9.190;2024-03-08T06:33:42;3.10;99.90
5128;DHT22;2582;48.770;9.190;2024-03-08T06:36:09;3.10;99.90
5128;DHT22;2582;48.770;9.190;2024-03-08T06:38:34;3.10;99.90
5128;DHT22;2582;48.770;9.190;2024-03-08T06:41:00;3.20;99.90
5128;DHT22;2582;48.770;9.190;2024-03-08T06:43:28;3.30;99.90
5128;DHT22;2582;48.770;9.190;2024-03-08T06:45:59;3.20;99.90
5128;DHT22;2582;48.770;9.190;2024-03-08T06:48:25;3.30;99.90
5128;DHT22;2582;48.770;9.190;2024-03-08T06:50:50;3.20;99.90
5128;DHT22;2582;48.770;9.190;2024-03-08T06:53:16;3.30;99.90
5128;DHT22;2582;48.770;9.190;2024-03-08T06:55:44;3.50;99.90
5128;DHT22;2582;48.770;9.190;2024-03-08T06:58:10;3.50;99.90
5128;DHT22;2582;48.770;9.190;2024-03-08T07:00:39;3.60;99.90
5128;DHT22;2582;48.770;9.190;2024-03-08T07:03:09;3.70;99.90
5128;DHT22;2582;48.770;9.190;2024-03-08T07:05:37;4.00;99.90
5128;DHT22;2582;48.770;9.190;2024-03-08T07:08:03;4.30;99.90
5128;DHT22;2582;48.770;9.190;2024-03-08T07:10:29;4.50;99.90
5128;DHT22;2582;48.770;9.190;2024-03-08T07:12:54;4.70;99.90
5128;DHT22;2582;48.770;9.190;2024-03-08T07:15:20;4.90;99.90
5128;DHT22;2582;48.770;9.190;2024-03-08T07:17:47;5.00;99.90
5128;DHT22;2582;48.770;9.190;2024-03-08T07:20:13;5.10;99.90
5128;DHT22;2582;48.770;9.190;2024-03-08T07:22:41;5.10;99.90
5128;DHT22;2582;48.770;9.190;2024-03-08T07:25:07;5.00;99.90
5128;DHT22;2582;48.770;9.190;2024-03-08T07:27:33;5.00;99.90
5128;DHT22;2582;48.770;9.190;2024-03-08T07:29:59;5.00;99.90
5128;DHT22;2582;48.770;9.190;2024-03-08T07:32:26;5.20;99.90
5128;DHT22;2582;48.770;9.190;2024-03-08T07:34:53;5.30;99.90
5128;DHT22;2582;48.770;9.190;2024-03-08T07:37:20;5.20;99.90
5128;DHT22;2582;48.770;9.190;2024-03-08T07:39:46;5.30;99.90
5128;DHT22;2582;48.770;9.190;2024-03-08T07:42:12;5.10;99.90
5128;DHT22;2582;48.770;9.190;2024-03-08T07:44:38;5.30;99.90
5128;DHT22;2582;48.770;9.190;2024-03-08T07:47:04;5.60;99.90
5128;DHT22;2582;48.770;9.190;2024-03-08T07:49:30;5.80;99.90
5128;DHT22;2582;48.770;9.190;2024-03-08T07:51:56;5.90;99.90
5128;DHT22;2582;48.770;9.190;2024-03-08T07:54:23;5.40;99.90
5128;DHT22;2582;48.770;9.190;2024-03-08T07:56:48;5.40;99.90
5128;DHT22;2582;48.770;9.190;2024-03-08T07:59:14;5.40;99.90
5128;DHT22;2582;48.770;9.190;2024-03-08T08:01:40;5.60;99.90
5128;DHT22;2582;48.770;9.190;2024-03-08T08:04:05;5.50;99.90
5128;DHT22;2582;48.770;9.190;2024-03-08T08:06:31;5.40;99.90
5128;DHT22;2582;48.770;9.190;2024-03-08T08:09:01;5.40;99.90
5128;DHT22;2582;48.770;9.190;2024-03-08T08:11:27;5.60;99.90
5128;DHT22;2582;48.770;9.190;2024-03-08T08:13:56;5.70;99.90
5128;DHT22;2582;48.770;9.190;2024-03-08T08:16:24;5.80;99.90
5128;DHT22;2582;48.770;9.190;2024-03-08T08:18:51;5.90;99.90
5128;DHT22;2582;48.770;9.190;2024-03-08T08:21:18;5.90;99.90
5128;DHT22;2582;48.770;9.190;2024-03-08T08:23:43;5.60;99.90
5128;DHT22;2582;48.770;9.190;2024-03-08T08:26:10;5.40;99.90
5128;DHT22;2582;48.770;9.190;2024-03-08T08:28:36;5.60;99.90
5128;DHT22;2582;48.770;9.190;2024-03-08T08:31:02;5.70;99.90
5128;DHT22;2582;48.770;9.190;2024-03-08T08:33:29;5.80;99.90
5128;DHT22;2582;48.770;9.190;2024-03-08T08:35:55;5.80;99.90
5128;DHT22;2582;48.770;9.190;2024-03-08T08:38:21;5.90;99.90
5128;DHT22;2582;48.770;9.190;2024-03-08T08:40:47;5.90;99.90
5128;DHT22;2582;48.770;9.190;2024-03-08T08:43:13;6.00;99.90
5128;DHT22;2582;48.770;9.190;2024-03-08T08:45:39;5.70;99.90
5128;DHT22;2582;48.770;9.190;2024-03-08T08:48:05;5.80;99.90
5128;DHT22;2582;48.770;9.190;2024-03-08T08:50:31;5.80;99.90
5128;DHT22;2582;48.770;9.190;2024-03-08T08:52:57;5.80;99.90
5128;DHT22;2582;48.770;9.190;2024-03-08T08:55:23;5.70;99.90
5128;DHT22;2582;48.770;9.190;2024-03-08T08:57:52;5.70;99.90
5128;DHT22;2582;48.770;9.190;2024-03-08T09:00:19;5.60;99.90
5128;DHT22;2582;48.770;9.190;2024-03-08T09:02:46;5.60;99.90
5128;DHT22;2582;48.770;9.190;2024-03-08T09:05:12;5.90;99.90
5128;DHT22;2582;48.770;9.190;2024-03-08T09:07:37;5.70;99.90
5128;DHT22;2582;48.770;9.190;2024-03-08T09:10:04;5.80;99.90
5128;DHT22;2582;48.770;9.190;2024-03-08T09:12:29;5.60;99.90
5128;DHT22;2582;48.770;9.190;2024-03-08T09:14:58;5.50;99.90
5128;DHT22;2582;48.770;9.190;2024-03-08T09:17:23;5.60;99.90
5128;DHT22;2582;48.770;9.190;2024-03-08T09:19:49;5.80;99.90
5128;DHT22;2582;48.770;9.190;2024-03-08T09:22:15;6.20;99.90
5128;DHT22;2582;48.770;9.190;2024-03-08T09:24:41;6.40;99.90
5128;DHT22;2582;48.770;9.190;2024-03-08T09:27:08;6.50;99.90
5128;DHT22;2582;48.770;9.190;2024-03-08T09:29:35;6.60;99.90
5128;DHT22;2582;48.770;9.190;2024-03-08T09:32:01;6.40;99.90
5128;DHT22;2582;48.770;9.190;2024-03-08T09:34:27;6.40;99.90
5128;DHT22;2582;48.770;9.190;2024-03-08T09:36:53;6.50;99.90
5128;DHT22;2582;48.770;9.190;2024-03-08T09:39:19;6.50;99.90
5128;DHT22;2582;48.770;9.190;2024-03-08T09:41:46;6.30;99.90
5128;DHT22;2582;48.770;9.190;2024-03-08T09:44:15;6.10;99.90
5128;DHT22;2582;48.770;9.190;2024-03-08T09:46:42;6.10;99.90
5128;DHT22;2582;48.770;9.190;2024-03-08T09:49:09;6.30;99.90
5128;DHT22;2582;48.770;9.190;2024-03-08T09:51:37;6.40;99.90
5128;DHT22;2582;48.770;9.190;2024-03-08T09:54:05;6.50;99.90
5128;DHT22;2582;48.770;9.190;2024-03-08T09:56:35;6.70;99.90
5128;DHT22;2582;48.770;9.190;2024-03-08T09:59:02;6.80;99.90
5128;DHT22;2582;48.770;9.190;2024-03-08T10:01:37;7.10;99.90
5128;DHT22;2582;48.770;9.190;2024-03-08T10:04:04;6.90;99.90
5128;DHT22;2582;48.770;9.190;2024-03-08T10:06:30;7.00;99.90
5128;DHT22;2582;48.770;9.190;2024-03-08T10:08:56;7.10;99.90
5128;DHT22;2582;48.770;9.190;2024-03-08T10:11:22;7.20;99.90
5128;DHT22;2582;48.770;9.190;2024-03-08T10:13:49;7.20;99.90
5128;DHT22;2582;48.770;9.190;2024-03-08T10:16:16;7.20;99.90
5128;DHT22;2582;48.770;9.190;2024-03-08T10:18:42;7.30;99.90
5128;DHT22;2582;48.770;9.190;2024-03-08T10:21:11;7.30;99.90
5128;DHT22;2582;48.770;9.190;2024-03-08T10:23:39;7.10;99.90
5128;DHT22;2582;48.770;9.190;2024-03-08T10:26:15;7.20;99.90
5128;DHT22;2582;48.770;9.190;2024-03-08T10:28:48;6.70;99.90
5128;DHT22;2582;48.770;9.190;2024-03-08T10:31:15;6.30;99.90
5128;DHT22;2582;48.770;9.190;2024-03-08T10:33:41;6.60;99.90
5128;DHT22;2582;48.770;9.190;2024-03-08T10:36:08;6.80;99.90
5128;DHT22;2582;48.770;9.190;2024-03-08T10:38:37;7.00;99.90
5128;DHT22;2582;48.770;9.190;2024-03-08T10:41:05;7.20;99.90
5128;DHT22;2582;48.770;9.190;2024-03-08T10:44:01;7.60;99.90
5128;DHT22;2582;48.770;9.190;2024-03-08T10:49:38;7.60;99.90
5128;DHT22;2582;48.770;9.190;2024-03-08T10:52:04;7.80;99.90
5128;DHT22;2582;48.770;9.190;2024-03-08T10:54:31;7.90;99.90
5128;DHT22;2582;48.770;9.190;2024-03-08T10:56:59;7.80;99.90
5128;DHT22;2582;48.770;9.190;2024-03-08T10:59:25;8.10;99.90
5128;DHT22;2582;48.770;9.190;2024-03-08T11:01:53;7.90;99.90
5128;DHT22;2582;48.770;9.190;2024-03-08T11:04:18;8.00;99.90
5128;DHT22;2582;48.770;9.190;2024-03-08T11:06:48;8.30;99.90
5128;DHT22;2582;48.770;9.190;2024-03-08T11:09:37;8.40;99.90
5128;DHT22;2582;48.770;9.190;2024-03-08T11:12:22;8.20;99.90
5128;DHT22;2582;48.770;9.190;2024-03-08T11:14:54;8.50;99.90
5128;DHT22;2582;48.770;9.190;2024-03-08T11:19:59;8.90;99.90
5128;DHT22;2582;48.770;9.190;2024-03-08T11:22:32;9.10;99.90
5128;DHT22;2582;48.770;9.190;2024-03-08T11:25:05;9.50;99.90
5128;DHT22;2582;48.770;9.190;2024-03-08T11:27:35;9.40;99.90
5128;DHT22;2582;48.770;9.190;2024-03-08T11:30:06;9.10;99.90
5128;DHT22;2582;48.770;9.190;2024-03-08T11:32:37;9.40;99.90
5128;DHT22;2582;48.770;9.190;2024-03-08T11:35:07;9.90;99.90
5128;DHT22;2582;48.770;9.190;2024-03-08T11:37:34;11.00;99.90
5128;DHT22;2582;48.770;9.190;2024-03-08T11:40:01;10.40;99.90
5128;DHT22;2582;48.770;9.190;2024-03-08T11:42:30;11.50;99.90
5128;DHT22;2582;48.770;9.190;2024-03-08T11:44:56;12.10;99.90
5128;DHT22;2582;48.770;9.190;2024-03-08T11:47:22;12.40;99.90
5128;DHT22;2582;48.770;9.190;2024-03-08T11:49:48;12.20;99.90
5128;DHT22;2582;48.770;9.190;2024-03-08T11:52:18;12.40;99.90
5128;DHT22;2582;48.770;9.190;2024-03-08T11:54:54;12.30;99.20
5128;DHT22;2582;48.770;9.190;2024-03-08T11:57:22;13.20;99.10
5128;DHT22;2582;48.770;9.190;2024-03-08T11:59:54;14.80;95.40
5128;DHT22;2582;48.770;9.190;2024-03-08T12:02:22;13.90;94.50
5128;DHT22;2582;48.770;9.190;2024-03-08T12:04:59;12.60;96.50
5128;DHT22;2582;48.770;9.190;2024-03-08T12:07:25;12.70;97.60
5128;DHT22;2582;48.770;9.190;2024-03-08T12:10:17;12.90;97.50
5128;DHT22;2582;48.770;9.190;2024-03-08T12:12:49;13.80;96.50
5128;DHT22;2582;48.770;9.190;2024-03-08T12:15:17;14.00;94.60
5128;DHT22;2582;48.770;9.190;2024-03-08T12:17:45;12.60;96.20
5128;DHT22;2582;48.770;9.190;2024-03-08T12:20:16;12.60;97.30
5128;DHT22;2582;48.770;9.190;2024-03-08T12:22:43;14.00;95.90
5128;DHT22;2582;48.770;9.190;2024-03-08T12:25:11;14.50;94.40
5128;DHT22;2582;48.770;9.190;2024-03-08T12:27:42;15.00;94.30
5128;DHT22;2582;48.770;9.190;2024-03-08T12:30:25;14.90;93.80
5128;DHT22;2582;48.770;9.190;2024-03-08T12:32:59;16.50;92.50
5128;DHT22;2582;48.770;9.190;2024-03-08T12:35:27;16.50;91.50
5128;DHT22;2582;48.770;9.190;2024-03-08T12:37:54;16.60;90.70
5128;DHT22;2582;48.770;9.190;2024-03-08T12:42:54;16.80;88.00
5128;DHT22;2582;48.770;9.190;2024-03-08T12:45:20;15.30;90.70
5128;DHT22;2582;48.770;9.190;2024-03-08T12:47:49;15.60;91.10
5128;DHT22;2582;48.770;9.190;2024-03-08T12:50:15;16.40;90.20
5128;DHT22;2582;48.770;9.190;2024-03-08T12:52:42;17.50;86.90
5128;DHT22;2582;48.770;9.190;2024-03-08T12:55:08;18.90;84.70
5128;DHT22;2582;48.770;9.190;2024-03-08T12:57:35;19.20;78.90
5128;DHT22;2582;48.770;9.190;2024-03-08T13:00:02;18.40;82.60
5128;DHT22;2582;48.770;9.190;2024-03-08T13:02:28;18.70;79.30
5128;DHT22;2582;48.770;9.190;2024-03-08T13:04:55;18.30;78.60
5128;DHT22;2582;48.770;9.190;2024-03-08T13:07:23;17.50;80.40
5128;DHT22;2582;48.770;9.190;2024-03-08T13:09:52;16.50;82.10
5128;DHT22;2582;48.770;9.190;2024-03-08T13:12:18;17.40;82.50
5128;DHT22;2582;48.770;9.190;2024-03-08T13:14:45;17.50;79.10
5128;DHT22;2582;48.770;9.190;2024-03-08T13:17:12;17.50;80.90
5128;DHT22;2582;48.770;9.190;2024-03-08T13:19:38;18.20;79.00
5128;DHT22;2582;48.770;9.190;2024-03-08T13:22:04;18.30;78.90
5128;DHT22;2582;48.770;9.190;2024-03-08T13:24:30;18.10;78.00
5128;DHT22;2582;48.770;9.190;2024-03-08T13:26:56;18.40;77.80
5128;DHT22;2582;48.770;9.190;2024-03-08T13:29:22;17.90;81.00
5128;DHT22;2582;48.770;9.190;2024-03-08T13:31:50;19.20;75.80
5128;DHT22;2582;48.770;9.190;2024-03-08T13:34:20;19.20;75.60
5128;DHT22;2582;48.770;9.190;2024-03-08T13:36:54;19.30;76.40
5128;DHT22;2582;48.770;9.190;2024-03-08T13:39:25;20.30;73.70
5128;DHT22;2582;48.770;9.190;2024-03-08T13:41:51;20.30;71.50
5128;DHT22;2582;48.770;9.190;2024-03-08T13:44:16;19.20;72.90
5128;DHT22;2582;48.770;9.190;2024-03-08T13:46:43;19.90;71.20
5128;DHT22;2582;48.770;9.190;2024-03-08T13:49:08;18.30;73.30
5128;DHT22;2582;48.770;9.190;2024-03-08T13:51:36;17.50;74.80
5128;DHT22;2582;48.770;9.190;2024-03-08T13:54:02;17.30;77.60
5128;DHT22;2582;48.770;9.190;2024-03-08T13:56:28;17.70;76.90
5128;DHT22;2582;48.770;9.190;2024-03-08T13:58:56;18.90;73.00
5128;DHT22;2582;48.770;9.190;2024-03-08T14:01:22;18.40;74.30
5128;DHT22;2582;48.770;9.190;2024-03-08T14:03:49;18.80;74.10
5128;DHT22;2582;48.770;9.190;2024-03-08T14:06:14;20.60;71.10
5128;DHT22;2582;48.770;9.190;2024-03-08T14:08:40;20.10;68.60
5128;DHT22;2582;48.770;9.190;2024-03-08T14:11:05;19.90;70.10
5128;DHT22;2582;48.770;9.190;2024-03-08T14:13:44;19.90;66.80
5128;DHT22;2582;48.770;9.190;2024-03-08T14:16:11;18.50;70.30
5128;DHT22;2582;48.770;9.190;2024-03-08T14:18:37;16.90;73.20
5128;DHT22;2582;48.770;9.190;2024-03-08T14:21:04;15.80;76.10
5128;DHT22;2582;48.770;9.190;2024-03-08T14:23:30;15.60;78.00
5128;DHT22;2582;48.770;9.190;2024-03-08T14:25:55;16.30;77.10
5128;DHT22;2582;48.770;9.190;2024-03-08T14:28:21;16.30;76.90
5128;DHT22;2582;48.770;9.190;2024-03-08T14:30:48;17.50;74.00
5128;DHT22;2582;48.770;9.190;2024-03-08T14:33:14;18.10;73.40
5128;DHT22;2582;48.770;9.190;2024-03-08T14:35:41;18.70;72.90
5128;DHT22;2582;48.770;9.190;2024-03-08T14:38:07;18.40;70.90
5128;DHT22;2582;48.770;9.190;2024-03-08T14:40:37;16.00;75.40
5128;DHT22;2582;48.770;9.190;2024-03-08T14:43:03;14.50;79.50
5128;DHT22;2582;48.770;9.190;2024-03-08T14:45:30;13.70;84.10
5128;DHT22;2582;48.770;9.190;2024-03-08T14:47:56;13.10;85.60
5128;DHT22;2582;48.770;9.190;2024-03-08T14:50:23;12.90;87.70
5128;DHT22;2582;48.770;9.190;2024-03-08T14:52:51;12.50;90.00
5128;DHT22;2582;48.770;9.190;2024-03-08T14:55:17;12.50;90.70
5128;DHT22;2582;48.770;9.190;2024-03-08T14:57:45;12.10;91.30
5128;DHT22;2582;48.770;9.190;2024-03-08T15:00:12;12.40;92.30
5128;DHT22;2582;48.770;9.190;2024-03-08T15:02:45;12.40;91.90
5128;DHT22;2582;48.770;9.190;2024-03-08T15:05:13;12.50;92.00
5128;DHT22;2582;48.770;9.190;2024-03-08T15:07:39;12.50;92.70
5128;DHT22;2582;48.770;9.190;2024-03-08T15:10:08;12.40;93.00
5128;DHT22;2582;48.770;9.190;2024-03-08T15:12:39;12.60;93.10
5128;DHT22;2582;48.770;9.190;2024-03-08T15:15:07;12.50;93.10
5128;DHT22;2582;48.770;9.190;2024-03-08T15:17:36;12.30;93.60
5128;DHT22;2582;48.770;9.190;2024-03-08T15:20:08;12.50;93.40
5128;DHT22;2582;48.770;9.190;2024-03-08T15:22:50;13.50;92.90
5128;DHT22;2582;48.770;9.190;2024-03-08T15:25:16;14.40;90.80
5128;DHT22;2582;48.770;9.190;2024-03-08T15:27:55;15.70;88.40
5128;DHT22;2582;48.770;9.190;2024-03-08T15:30:21;15.20;87.80
5128;DHT22;2582;48.770;9.190;2024-03-08T15:32:54;16.00;87.60
5128;DHT22;2582;48.770;9.190;2024-03-08T15:35:24;17.30;85.20
5128;DHT22;2582;48.770;9.190;2024-03-08T15:37:51;17.70;81.30
5128;DHT22;2582;48.770;9.190;2024-03-08T15:40:17;19.10;78.60
5128;DHT22;2582;48.770;9.190;2024-03-08T15:42:54;19.40;76.00
5128;DHT22;2582;48.770;9.190;2024-03-08T15:45:20;19.40;74.20
5128;DHT22;2582;48.770;9.190;2024-03-08T15:47:49;19.70;74.90
5128;DHT22;2582;48.770;9.190;2024-03-08T15:50:14;20.70;71.90
5128;DHT22;2582;48.770;9.190;2024-03-08T15:52:43;20.10;71.00
5128;DHT22;2582;48.770;9.190;2024-03-08T15:55:14;19.90;71.50
5128;DHT22;2582;48.770;9.190;2024-03-08T15:57:45;18.90;73.60
5128;DHT22;2582;48.770;9.190;2024-03-08T16:00:14;18.20;74.70
5128;DHT22;2582;48.770;9.190;2024-03-08T16:02:44;17.80;76.00
5128;DHT22;2582;48.770;9.190;2024-03-08T16:05:09;16.30;77.70
5128;DHT22;2582;48.770;9.190;2024-03-08T16:07:37;15.60;81.80
5128;DHT22;2582;48.770;9.190;2024-03-08T16:10:03;15.40;82.70
5128;DHT22;2582;48.770;9.190;2024-03-08T16:12:35;14.90;83.50
5128;DHT22;2582;48.770;9.190;2024-03-08T16:15:01;14.10;86.30
5128;DHT22;2582;48.770;9.190;2024-03-08T16:17:27;13.80;88.90
5128;DHT22;2582;48.770;9.190;2024-03-08T16:19:52;13.40;90.00
5128;DHT22;2582;48.770;9.190;2024-03-08T16:22:21;13.30;90.20